Terminal Aerodrome Forecast
Issued by NWS

Home | Current Version | Previous Version | Text Only | Print | Product List | Glossary On
Versions: 1 2 3 4 5 6 7 8 9 10 11 12 13 14 15 16 17 18
000
FTUS46 KMFR 260520
TAFOTH
TAF
KOTH 260520Z 2606/2706 01009KT P6SM OVC012
     FM261000 VRB03KT P6SM OVC010
     FM261800 33010KT P6SM OVC015
     FM262000 36018G30KT P6SM SCT015
     FM270300 01010KT P6SM OVC013=

USA.gov is the U.S. government's official web portal to all federal, state and local government web resources and services.